sensor_id;sensor_type;location;lat;lon;timestamp;P1;durP1;ratioP1;P2;durP2;ratioP2
49101;SDS011;34913;47.520;19.186;2023-05-13T00:01:28;6.97;;;6.25;;
49101;SDS011;34913;47.520;19.186;2023-05-13T00:03:54;8.68;;;7.00;;
49101;SDS011;34913;47.520;19.186;2023-05-13T00:06:19;7.82;;;6.22;;
49101;SDS011;34913;47.520;19.186;2023-05-13T00:08:45;6.60;;;5.88;;
49101;SDS011;34913;47.520;19.186;2023-05-13T00:11:10;6.70;;;5.90;;
49101;SDS011;34913;47.520;19.186;2023-05-13T00:13:36;8.70;;;6.47;;
49101;SDS011;34913;47.520;19.186;2023-05-13T00:16:01;6.97;;;5.82;;
49101;SDS011;34913;47.520;19.186;2023-05-13T00:18:27;7.15;;;6.32;;
49101;SDS011;34913;47.520;19.186;2023-05-13T00:20:53;7.57;;;6.20;;
49101;SDS011;34913;47.520;19.186;2023-05-13T00:23:18;8.23;;;6.22;;
49101;SDS011;34913;47.520;19.186;2023-05-13T00:25:44;7.97;;;5.90;;
49101;SDS011;34913;47.520;19.186;2023-05-13T00:28:09;7.43;;;5.65;;
49101;SDS011;34913;47.520;19.186;2023-05-13T00:30:37;6.88;;;5.75;;
49101;SDS011;34913;47.520;19.186;2023-05-13T00:33:03;6.80;;;6.10;;
49101;SDS011;34913;47.520;19.186;2023-05-13T00:35:31;6.57;;;5.97;;
49101;SDS011;34913;47.520;19.186;2023-05-13T00:37:56;6.57;;;5.70;;
49101;SDS011;34913;47.520;19.186;2023-05-13T00:40:23;6.45;;;5.85;;
49101;SDS011;34913;47.520;19.186;2023-05-13T00:42:49;6.70;;;5.78;;
49101;SDS011;34913;47.520;19.186;2023-05-13T00:45:16;7.18;;;5.88;;
49101;SDS011;34913;47.520;19.186;2023-05-13T00:47:41;6.85;;;5.75;;
49101;SDS011;34913;47.520;19.186;2023-05-13T00:50:08;7.70;;;5.78;;
49101;SDS011;34913;47.520;19.186;2023-05-13T00:52:35;7.13;;;5.90;;
49101;SDS011;34913;47.520;19.186;2023-05-13T00:55:03;7.53;;;6.10;;
49101;SDS011;34913;47.520;19.186;2023-05-13T00:57:29;6.53;;;5.45;;
49101;SDS011;34913;47.520;19.186;2023-05-13T00:59:55;7.47;;;6.32;;
49101;SDS011;34913;47.520;19.186;2023-05-13T01:02:26;6.60;;;5.97;;
49101;SDS011;34913;47.520;19.186;2023-05-13T01:10:58;7.32;;;6.25;;
49101;SDS011;34913;47.520;19.186;2023-05-13T01:13:30;6.68;;;6.00;;
49101;SDS011;34913;47.520;19.186;2023-05-13T01:16:11;6.93;;;5.78;;
49101;SDS011;34913;47.520;19.186;2023-05-13T01:18:43;6.77;;;6.07;;
49101;SDS011;34913;47.520;19.186;2023-05-13T01:21:13;6.68;;;5.97;;
49101;SDS011;34913;47.520;19.186;2023-05-13T01:23:38;6.13;;;5.53;;
49101;SDS011;34913;47.520;19.186;2023-05-13T01:26:04;7.57;;;5.63;;
49101;SDS011;34913;47.520;19.186;2023-05-13T01:28:29;6.00;;;5.40;;
49101;SDS011;34913;47.520;19.186;2023-05-13T01:30:55;6.00;;;5.40;;
49101;SDS011;34913;47.520;19.186;2023-05-13T01:33:21;6.13;;;5.53;;
49101;SDS011;34913;47.520;19.186;2023-05-13T01:35:48;7.65;;;5.50;;
49101;SDS011;34913;47.520;19.186;2023-05-13T01:38:14;5.80;;;5.20;;
49101;SDS011;34913;47.520;19.186;2023-05-13T01:40:40;6.15;;;5.30;;
49101;SDS011;34913;47.520;19.186;2023-05-13T01:43:06;6.10;;;5.35;;
49101;SDS011;34913;47.520;19.186;2023-05-13T01:45:32;5.30;;;4.78;;
49101;SDS011;34913;47.520;19.186;2023-05-13T01:47:57;5.38;;;4.88;;
49101;SDS011;34913;47.520;19.186;2023-05-13T01:50:23;7.20;;;5.13;;
49101;SDS011;34913;47.520;19.186;2023-05-13T01:52:49;8.70;;;5.10;;
49101;SDS011;34913;47.520;19.186;2023-05-13T01:55:14;5.32;;;4.80;;
49101;SDS011;34913;47.520;19.186;2023-05-13T01:57:40;6.18;;;5.55;;
49101;SDS011;34913;47.520;19.186;2023-05-13T02:00:05;6.80;;;5.38;;
49101;SDS011;34913;47.520;19.186;2023-05-13T02:02:32;8.45;;;5.15;;
49101;SDS011;34913;47.520;19.186;2023-05-13T02:04:57;7.60;;;5.28;;
49101;SDS011;34913;47.520;19.186;2023-05-13T02:07:23;7.35;;;5.50;;
49101;SDS011;34913;47.520;19.186;2023-05-13T02:09:48;6.00;;;5.40;;
49101;SDS011;34913;47.520;19.186;2023-05-13T02:12:13;5.60;;;4.97;;
49101;SDS011;34913;47.520;19.186;2023-05-13T02:14:39;7.00;;;5.32;;
49101;SDS011;34913;47.520;19.186;2023-05-13T02:17:05;6.70;;;5.68;;
49101;SDS011;34913;47.520;19.186;2023-05-13T02:19:30;6.10;;;5.50;;
49101;SDS011;34913;47.520;19.186;2023-05-13T02:21:55;6.20;;;5.45;;
49101;SDS011;34913;47.520;19.186;2023-05-13T02:24:21;6.72;;;5.38;;
49101;SDS011;34913;47.520;19.186;2023-05-13T02:26:46;6.88;;;5.55;;
49101;SDS011;34913;47.520;19.186;2023-05-13T02:29:12;6.30;;;5.70;;
49101;SDS011;34913;47.520;19.186;2023-05-13T02:31:38;6.22;;;5.63;;
49101;SDS011;34913;47.520;19.186;2023-05-13T02:34:05;6.40;;;5.80;;
49101;SDS011;34913;47.520;19.186;2023-05-13T02:36:30;8.18;;;5.75;;
49101;SDS011;34913;47.520;19.186;2023-05-13T02:38:56;8.85;;;5.70;;
49101;SDS011;34913;47.520;19.186;2023-05-13T02:41:21;7.28;;;5.03;;
49101;SDS011;34913;47.520;19.186;2023-05-13T02:43:46;7.20;;;5.97;;
49101;SDS011;34913;47.520;19.186;2023-05-13T02:46:12;9.68;;;5.88;;
49101;SDS011;34913;47.520;19.186;2023-05-13T02:48:37;9.00;;;6.05;;
49101;SDS011;34913;47.520;19.186;2023-05-13T02:51:03;6.72;;;6.03;;
49101;SDS011;34913;47.520;19.186;2023-05-13T02:53:28;6.88;;;5.93;;
49101;SDS011;34913;47.520;19.186;2023-05-13T02:55:53;6.68;;;5.82;;
49101;SDS011;34913;47.520;19.186;2023-05-13T02:58:19;8.18;;;5.90;;
49101;SDS011;34913;47.520;19.186;2023-05-13T03:00:44;7.35;;;6.18;;
49101;SDS011;34913;47.520;19.186;2023-05-13T03:03:10;9.25;;;5.65;;
49101;SDS011;34913;47.520;19.186;2023-05-13T03:05:35;6.63;;;5.60;;
49101;SDS011;34913;47.520;19.186;2023-05-13T03:08:01;6.47;;;5.88;;
49101;SDS011;34913;47.520;19.186;2023-05-13T03:10:26;7.20;;;5.82;;
49101;SDS011;34913;47.520;19.186;2023-05-13T03:12:52;6.32;;;5.55;;
49101;SDS011;34913;47.520;19.186;2023-05-13T03:15:17;7.82;;;5.82;;
49101;SDS011;34913;47.520;19.186;2023-05-13T03:17:43;6.30;;;5.40;;
49101;SDS011;34913;47.520;19.186;2023-05-13T03:20:09;8.40;;;5.80;;
49101;SDS011;34913;47.520;19.186;2023-05-13T03:22:35;7.25;;;5.65;;
49101;SDS011;34913;47.520;19.186;2023-05-13T03:25:03;6.88;;;5.60;;
49101;SDS011;34913;47.520;19.186;2023-05-13T03:27:29;7.15;;;5.78;;
49101;SDS011;34913;47.520;19.186;2023-05-13T03:29:55;6.30;;;5.57;;
49101;SDS011;34913;47.520;19.186;2023-05-13T03:32:20;7.20;;;5.78;;
49101;SDS011;34913;47.520;19.186;2023-05-13T03:34:46;6.35;;;5.60;;
49101;SDS011;34913;47.520;19.186;2023-05-13T03:37:12;7.30;;;5.95;;
49101;SDS011;34913;47.520;19.186;2023-05-13T03:39:38;6.95;;;5.60;;
49101;SDS011;34913;47.520;19.186;2023-05-13T03:42:03;8.00;;;5.38;;
49101;SDS011;34913;47.520;19.186;2023-05-13T03:44:29;6.03;;;5.45;;
49101;SDS011;34913;47.520;19.186;2023-05-13T03:46:54;6.22;;;5.63;;
49101;SDS011;34913;47.520;19.186;2023-05-13T03:49:19;5.90;;;5.30;;
49101;SDS011;34913;47.520;19.186;2023-05-13T03:51:45;5.97;;;5.38;;
49101;SDS011;34913;47.520;19.186;2023-05-13T03:54:10;7.55;;;6.05;;
49101;SDS011;34913;47.520;19.186;2023-05-13T03:56:36;7.80;;;5.95;;
49101;SDS011;34913;47.520;19.186;2023-05-13T03:59:01;8.43;;;5.53;;
49101;SDS011;34913;47.520;19.186;2023-05-13T04:01:26;6.10;;;5.18;;
49101;SDS011;34913;47.520;19.186;2023-05-13T04:03:52;11.65;;;5.90;;
49101;SDS011;34913;47.520;19.186;2023-05-13T04:06:17;6.53;;;5.82;;
49101;SDS011;34913;47.520;19.186;2023-05-13T04:08:42;7.20;;;5.88;;
49101;SDS011;34913;47.520;19.186;2023-05-13T04:11:08;7.70;;;6.10;;
49101;SDS011;34913;47.520;19.186;2023-05-13T04:13:34;6.70;;;6.00;;
49101;SDS011;34913;47.520;19.186;2023-05-13T04:16:00;6.65;;;5.85;;
49101;SDS011;34913;47.520;19.186;2023-05-13T04:18:25;6.65;;;5.30;;
49101;SDS011;34913;47.520;19.186;2023-05-13T04:20:51;7.45;;;5.55;;
49101;SDS011;34913;47.520;19.186;2023-05-13T04:23:16;6.38;;;5.35;;
49101;SDS011;34913;47.520;19.186;2023-05-13T04:25:42;5.97;;;5.00;;
49101;SDS011;34913;47.520;19.186;2023-05-13T04:28:07;6.43;;;5.47;;
49101;SDS011;34913;47.520;19.186;2023-05-13T04:30:33;5.60;;;5.10;;
49101;SDS011;34913;47.520;19.186;2023-05-13T04:32:59;7.75;;;5.90;;
49101;SDS011;34913;47.520;19.186;2023-05-13T04:35:25;7.20;;;5.95;;
49101;SDS011;34913;47.520;19.186;2023-05-13T04:37:50;6.97;;;5.72;;
49101;SDS011;34913;47.520;19.186;2023-05-13T04:40:15;6.93;;;5.57;;
49101;SDS011;34913;47.520;19.186;2023-05-13T04:42:41;6.70;;;5.40;;
49101;SDS011;34913;47.520;19.186;2023-05-13T04:45:07;7.85;;;5.38;;
49101;SDS011;34913;47.520;19.186;2023-05-13T04:47:32;7.65;;;6.00;;
49101;SDS011;34913;47.520;19.186;2023-05-13T04:49:59;7.55;;;5.75;;
49101;SDS011;34913;47.520;19.186;2023-05-13T04:52:25;7.13;;;6.25;;
49101;SDS011;34913;47.520;19.186;2023-05-13T04:54:50;7.53;;;6.40;;
49101;SDS011;34913;47.520;19.186;2023-05-13T04:57:16;7.15;;;6.45;;
49101;SDS011;34913;47.520;19.186;2023-05-13T04:59:41;5.88;;;5.28;;
49101;SDS011;34913;47.520;19.186;2023-05-13T05:02:07;7.55;;;5.88;;
49101;SDS011;34913;47.520;19.186;2023-05-13T05:04:32;5.85;;;5.25;;
49101;SDS011;34913;47.520;19.186;2023-05-13T05:06:58;8.73;;;5.55;;
49101;SDS011;34913;47.520;19.186;2023-05-13T05:09:23;7.72;;;5.50;;
49101;SDS011;34913;47.520;19.186;2023-05-13T05:11:48;6.60;;;5.72;;
49101;SDS011;34913;47.520;19.186;2023-05-13T05:14:14;6.13;;;5.53;;
49101;SDS011;34913;47.520;19.186;2023-05-13T05:16:40;6.20;;;5.30;;
49101;SDS011;34913;47.520;19.186;2023-05-13T05:19:05;5.70;;;5.05;;
49101;SDS011;34913;47.520;19.186;2023-05-13T05:21:31;7.03;;;5.57;;
49101;SDS011;34913;47.520;19.186;2023-05-13T05:23:56;7.43;;;5.70;;
49101;SDS011;34913;47.520;19.186;2023-05-13T05:26:23;8.77;;;5.93;;
49101;SDS011;34913;47.520;19.186;2023-05-13T05:28:49;9.25;;;6.30;;
49101;SDS011;34913;47.520;19.186;2023-05-13T05:31:14;8.63;;;6.53;;
49101;SDS011;34913;47.520;19.186;2023-05-13T05:33:40;7.28;;;5.93;;
49101;SDS011;34913;47.520;19.186;2023-05-13T05:36:06;6.60;;;5.90;;
49101;SDS011;34913;47.520;19.186;2023-05-13T05:38:32;6.72;;;5.60;;
49101;SDS011;34913;47.520;19.186;2023-05-13T05:40:57;7.25;;;4.90;;
49101;SDS011;34913;47.520;19.186;2023-05-13T05:43:23;7.07;;;4.82;;
49101;SDS011;34913;47.520;19.186;2023-05-13T05:45:48;5.50;;;4.95;;
49101;SDS011;34913;47.520;19.186;2023-05-13T05:48:13;5.90;;;5.30;;
49101;SDS011;34913;47.520;19.186;2023-05-13T05:50:39;7.65;;;5.07;;
49101;SDS011;34913;47.520;19.186;2023-05-13T05:53:05;6.22;;;4.93;;
49101;SDS011;34913;47.520;19.186;2023-05-13T05:55:31;7.90;;;6.00;;
49101;SDS011;34913;47.520;19.186;2023-05-13T05:57:57;7.03;;;6.07;;
49101;SDS011;34913;47.520;19.186;2023-05-13T06:00:27;7.40;;;6.60;;
49101;SDS011;34913;47.520;19.186;2023-05-13T06:02:53;8.23;;;6.40;;
49101;SDS011;34913;47.520;19.186;2023-05-13T06:05:21;7.15;;;6.40;;
49101;SDS011;34913;47.520;19.186;2023-05-13T06:07:46;9.95;;;6.40;;
49101;SDS011;34913;47.520;19.186;2023-05-13T06:10:12;7.03;;;6.25;;
49101;SDS011;34913;47.520;19.186;2023-05-13T06:12:37;7.35;;;6.22;;
49101;SDS011;34913;47.520;19.186;2023-05-13T06:15:04;8.63;;;6.68;;
49101;SDS011;34913;47.520;19.186;2023-05-13T06:17:34;7.18;;;6.47;;
49101;SDS011;34913;47.520;19.186;2023-05-13T06:20:02;7.38;;;6.38;;
49101;SDS011;34913;47.520;19.186;2023-05-13T06:22:28;7.93;;;6.65;;
49101;SDS011;34913;47.520;19.186;2023-05-13T06:24:54;7.00;;;6.28;;
49101;SDS011;34913;47.520;19.186;2023-05-13T06:27:20;8.02;;;6.60;;
49101;SDS011;34913;47.520;19.186;2023-05-13T06:29:45;8.50;;;7.00;;
49101;SDS011;34913;47.520;19.186;2023-05-13T06:32:11;7.82;;;7.07;;
49101;SDS011;34913;47.520;19.186;2023-05-13T06:34:36;7.72;;;6.72;;
49101;SDS011;34913;47.520;19.186;2023-05-13T06:37:04;9.57;;;6.97;;
49101;SDS011;34913;47.520;19.186;2023-05-13T06:39:29;7.90;;;7.10;;
49101;SDS011;34913;47.520;19.186;2023-05-13T06:41:54;9.80;;;6.95;;
49101;SDS011;34913;47.520;19.186;2023-05-13T06:44:20;10.43;;;8.10;;
49101;SDS011;34913;47.520;19.186;2023-05-13T06:46:45;10.57;;;7.65;;
49101;SDS011;34913;47.520;19.186;2023-05-13T06:49:11;7.72;;;6.93;;
49101;SDS011;34913;47.520;19.186;2023-05-13T06:51:36;10.35;;;7.43;;
49101;SDS011;34913;47.520;19.186;2023-05-13T06:54:01;10.02;;;7.95;;
49101;SDS011;34913;47.520;19.186;2023-05-13T06:56:28;8.38;;;7.53;;
49101;SDS011;34913;47.520;19.186;2023-05-13T06:58:54;10.93;;;7.85;;
49101;SDS011;34913;47.520;19.186;2023-05-13T07:01:19;9.32;;;7.35;;
49101;SDS011;34913;47.520;19.186;2023-05-13T07:03:45;8.52;;;7.60;;
49101;SDS011;34913;47.520;19.186;2023-05-13T07:06:10;8.02;;;7.22;;
49101;SDS011;34913;47.520;19.186;2023-05-13T07:08:36;8.52;;;7.63;;
49101;SDS011;34913;47.520;19.186;2023-05-13T07:11:01;26.70;;;8.52;;
49101;SDS011;34913;47.520;19.186;2023-05-13T07:13:27;10.43;;;7.88;;
49101;SDS011;34913;47.520;19.186;2023-05-13T07:15:54;12.43;;;7.75;;
49101;SDS011;34913;47.520;19.186;2023-05-13T07:18:19;9.18;;;7.25;;
49101;SDS011;34913;47.520;19.186;2023-05-13T07:20:44;8.52;;;7.15;;
49101;SDS011;34913;47.520;19.186;2023-05-13T07:23:10;8.40;;;7.15;;
49101;SDS011;34913;47.520;19.186;2023-05-13T07:25:36;10.05;;;6.95;;
49101;SDS011;34913;47.520;19.186;2023-05-13T07:28:01;8.80;;;7.20;;
49101;SDS011;34913;47.520;19.186;2023-05-13T07:30:27;8.15;;;7.30;;
49101;SDS011;34913;47.520;19.186;2023-05-13T07:32:52;11.00;;;7.57;;
49101;SDS011;34913;47.520;19.186;2023-05-13T07:35:17;9.00;;;7.05;;
49101;SDS011;34913;47.520;19.186;2023-05-13T07:37:43;8.13;;;7.32;;
49101;SDS011;34913;47.520;19.186;2023-05-13T07:40:09;9.57;;;6.93;;
49101;SDS011;34913;47.520;19.186;2023-05-13T07:42:35;9.27;;;7.82;;
49101;SDS011;34913;47.520;19.186;2023-05-13T07:45:01;8.77;;;7.80;;
49101;SDS011;34913;47.520;19.186;2023-05-13T07:47:27;9.20;;;7.93;;
49101;SDS011;34913;47.520;19.186;2023-05-13T07:49:53;8.52;;;7.63;;
49101;SDS011;34913;47.520;19.186;2023-05-13T07:52:19;8.88;;;7.30;;
49101;SDS011;34913;47.520;19.186;2023-05-13T07:54:44;11.43;;;7.57;;
49101;SDS011;34913;47.520;19.186;2023-05-13T07:57:10;10.20;;;6.82;;
49101;SDS011;34913;47.520;19.186;2023-05-13T07:59:35;9.88;;;7.35;;
49101;SDS011;34913;47.520;19.186;2023-05-13T08:02:01;8.13;;;7.30;;
49101;SDS011;34913;47.520;19.186;2023-05-13T08:04:26;7.55;;;6.55;;
49101;SDS011;34913;47.520;19.186;2023-05-13T08:06:52;9.23;;;7.38;;
49101;SDS011;34913;47.520;19.186;2023-05-13T08:09:17;7.68;;;6.90;;
49101;SDS011;34913;47.520;19.186;2023-05-13T08:11:43;8.57;;;7.40;;
49101;SDS011;34913;47.520;19.186;2023-05-13T08:14:08;10.52;;;7.50;;
49101;SDS011;34913;47.520;19.186;2023-05-13T08:16:34;8.90;;;7.03;;
49101;SDS011;34913;47.520;19.186;2023-05-13T08:19:02;8.55;;;7.40;;
49101;SDS011;34913;47.520;19.186;2023-05-13T08:21:28;8.63;;;7.20;;
49101;SDS011;34913;47.520;19.186;2023-05-13T08:23:54;8.90;;;6.93;;
49101;SDS011;34913;47.520;19.186;2023-05-13T08:26:19;11.40;;;6.60;;
49101;SDS011;34913;47.520;19.186;2023-05-13T08:28:45;6.68;;;5.95;;
49101;SDS011;34913;47.520;19.186;2023-05-13T08:31:10;7.70;;;6.47;;
49101;SDS011;34913;47.520;19.186;2023-05-13T08:33:36;6.82;;;6.13;;
49101;SDS011;34913;47.520;19.186;2023-05-13T08:36:02;7.63;;;6.20;;
49101;SDS011;34913;47.520;19.186;2023-05-13T08:38:27;7.88;;;5.93;;
49101;SDS011;34913;47.520;19.186;2023-05-13T08:40:53;8.07;;;6.13;;
49101;SDS011;34913;47.520;19.186;2023-05-13T08:43:19;6.97;;;6.28;;
49101;SDS011;34913;47.520;19.186;2023-05-13T08:45:47;6.18;;;5.57;;
49101;SDS011;34913;47.520;19.186;2023-05-13T08:48:17;9.57;;;5.97;;
49101;SDS011;34913;47.520;19.186;2023-05-13T08:50:43;6.50;;;5.78;;
49101;SDS011;34913;47.520;19.186;2023-05-13T08:53:10;7.10;;;6.10;;
49101;SDS011;34913;47.520;19.186;2023-05-13T08:55:40;6.45;;;5.80;;
49101;SDS011;34913;47.520;19.186;2023-05-13T08:58:05;9.13;;;6.82;;
49101;SDS011;34913;47.520;19.186;2023-05-13T09:00:32;6.95;;;6.00;;
49101;SDS011;34913;47.520;19.186;2023-05-13T09:02:58;7.65;;;6.85;;
49101;SDS011;34913;47.520;19.186;2023-05-13T09:05:24;7.18;;;6.43;;
49101;SDS011;34913;47.520;19.186;2023-05-13T09:07:50;7.30;;;6.60;;
49101;SDS011;34913;47.520;19.186;2023-05-13T09:10:15;8.55;;;7.15;;
49101;SDS011;34913;47.520;19.186;2023-05-13T09:12:45;8.68;;;6.90;;
49101;SDS011;34913;47.520;19.186;2023-05-13T09:15:16;8.95;;;6.50;;
49101;SDS011;34913;47.520;19.186;2023-05-13T09:17:47;10.48;;;7.28;;
49101;SDS011;34913;47.520;19.186;2023-05-13T09:20:16;8.85;;;6.88;;
49101;SDS011;34913;47.520;19.186;2023-05-13T09:22:43;7.88;;;6.05;;
49101;SDS011;34913;47.520;19.186;2023-05-13T09:25:13;9.30;;;7.00;;
49101;SDS011;34913;47.520;19.186;2023-05-13T09:27:45;8.32;;;6.63;;
49101;SDS011;34913;47.520;19.186;2023-05-13T09:30:12;12.25;;;6.93;;
49101;SDS011;34913;47.520;19.186;2023-05-13T09:32:37;6.95;;;6.25;;
49101;SDS011;34913;47.520;19.186;2023-05-13T09:35:07;7.88;;;6.15;;
49101;SDS011;34913;47.520;19.186;2023-05-13T09:37:40;8.15;;;5.82;;
49101;SDS011;34913;47.520;19.186;2023-05-13T09:40:14;8.95;;;6.22;;
49101;SDS011;34913;47.520;19.186;2023-05-13T09:42:42;10.13;;;6.43;;
49101;SDS011;34913;47.520;19.186;2023-05-13T09:45:09;6.72;;;5.80;;
49101;SDS011;34913;47.520;19.186;2023-05-13T09:47:36;8.63;;;5.65;;
49101;SDS011;34913;47.520;19.186;2023-05-13T09:50:02;6.50;;;5.25;;
49101;SDS011;34913;47.520;19.186;2023-05-13T09:52:32;6.15;;;5.32;;
49101;SDS011;34913;47.520;19.186;2023-05-13T09:54:59;7.03;;;5.50;;
49101;SDS011;34913;47.520;19.186;2023-05-13T09:57:25;5.43;;;4.93;;
49101;SDS011;34913;47.520;19.186;2023-05-13T09:59:55;5.45;;;4.72;;
49101;SDS011;34913;47.520;19.186;2023-05-13T10:02:21;7.40;;;4.90;;
49101;SDS011;34913;47.520;19.186;2023-05-13T10:04:48;8.18;;;5.05;;
49101;SDS011;34913;47.520;19.186;2023-05-13T10:07:14;5.30;;;4.80;;
49101;SDS011;34913;47.520;19.186;2023-05-13T10:09:40;5.55;;;5.00;;
49101;SDS011;34913;47.520;19.186;2023-05-13T10:12:09;5.70;;;5.10;;
49101;SDS011;34913;47.520;19.186;2023-05-13T10:14:38;5.40;;;4.90;;
49101;SDS011;34913;47.520;19.186;2023-05-13T10:17:06;4.82;;;4.40;;
49101;SDS011;34913;47.520;19.186;2023-05-13T10:19:32;5.50;;;4.90;;
49101;SDS011;34913;47.520;19.186;2023-05-13T10:21:57;5.97;;;4.50;;
49101;SDS011;34913;47.520;19.186;2023-05-13T10:24:23;5.10;;;4.60;;
49101;SDS011;34913;47.520;19.186;2023-05-13T10:26:51;5.90;;;4.18;;
49101;SDS011;34913;47.520;19.186;2023-05-13T10:29:18;5.75;;;4.20;;
49101;SDS011;34913;47.520;19.186;2023-05-13T10:31:43;5.25;;;4.30;;
49101;SDS011;34913;47.520;19.186;2023-05-13T10:34:11;5.22;;;4.72;;
49101;SDS011;34913;47.520;19.186;2023-05-13T10:44:36;6.93;;;4.90;;
49101;SDS011;34913;47.520;19.186;2023-05-13T10:47:01;5.35;;;4.40;;
49101;SDS011;34913;47.520;19.186;2023-05-13T10:49:33;6.18;;;4.97;;
49101;SDS011;34913;47.520;19.186;2023-05-13T10:52:03;6.40;;;4.50;;
49101;SDS011;34913;47.520;19.186;2023-05-13T10:54:36;7.47;;;4.78;;
49101;SDS011;34913;47.520;19.186;2023-05-13T10:57:04;5.47;;;4.20;;
49101;SDS011;34913;47.520;19.186;2023-05-13T10:59:30;5.97;;;4.05;;
49101;SDS011;34913;47.520;19.186;2023-05-13T11:01:55;5.85;;;4.20;;
49101;SDS011;34913;47.520;19.186;2023-05-13T11:04:21;4.50;;;3.92;;
49101;SDS011;34913;47.520;19.186;2023-05-13T11:06:47;5.63;;;4.40;;
49101;SDS011;34913;47.520;19.186;2023-05-13T11:09:14;7.72;;;4.28;;
49101;SDS011;34913;47.520;19.186;2023-05-13T11:11:57;6.55;;;4.30;;
49101;SDS011;34913;47.520;19.186;2023-05-13T11:14:24;5.60;;;4.22;;
49101;SDS011;34913;47.520;19.186;2023-05-13T11:19:28;8.15;;;4.85;;
49101;SDS011;34913;47.520;19.186;2023-05-13T11:22:08;5.97;;;4.65;;
49101;SDS011;34913;47.520;19.186;2023-05-13T11:24:36;10.70;;;5.43;;
49101;SDS011;34913;47.520;19.186;2023-05-13T11:27:14;9.68;;;4.82;;
49101;SDS011;34913;47.520;19.186;2023-05-13T11:29:51;6.50;;;4.35;;
49101;SDS011;34913;47.520;19.186;2023-05-13T11:35:28;7.57;;;4.53;;
49101;SDS011;34913;47.520;19.186;2023-05-13T11:37:56;7.03;;;4.80;;
49101;SDS011;34913;47.520;19.186;2023-05-13T11:42:55;8.70;;;5.90;;
49101;SDS011;34913;47.520;19.186;2023-05-13T11:45:23;11.50;;;6.32;;
49101;SDS011;34913;47.520;19.186;2023-05-13T11:47:49;8.02;;;6.03;;
49101;SDS011;34913;47.520;19.186;2023-05-13T11:50:34;12.80;;;7.95;;
49101;SDS011;34913;47.520;19.186;2023-05-13T11:53:00;14.10;;;8.30;;
49101;SDS011;34913;47.520;19.186;2023-05-13T11:55:26;11.57;;;5.68;;
49101;SDS011;34913;47.520;19.186;2023-05-13T11:57:57;28.92;;;12.10;;
49101;SDS011;34913;47.520;19.186;2023-05-13T12:00:23;29.77;;;12.93;;
49101;SDS011;34913;47.520;19.186;2023-05-13T12:02:50;19.35;;;9.73;;
49101;SDS011;34913;47.520;19.186;2023-05-13T12:05:16;6.10;;;5.20;;
49101;SDS011;34913;47.520;19.186;2023-05-13T12:07:41;7.25;;;4.40;;
49101;SDS011;34913;47.520;19.186;2023-05-13T12:10:07;5.82;;;4.18;;
49101;SDS011;34913;47.520;19.186;2023-05-13T12:12:34;11.48;;;4.15;;
49101;SDS011;34913;47.520;19.186;2023-05-13T12:15:02;4.78;;;4.22;;
49101;SDS011;34913;47.520;19.186;2023-05-13T12:17:29;4.70;;;4.20;;
49101;SDS011;34913;47.520;19.186;2023-05-13T12:20:11;9.85;;;4.40;;
49101;SDS011;34913;47.520;19.186;2023-05-13T12:30:33;7.95;;;3.90;;
49101;SDS011;34913;47.520;19.186;2023-05-13T12:33:03;4.60;;;3.72;;
49101;SDS011;34913;47.520;19.186;2023-05-13T12:35:29;7.10;;;4.22;;
49101;SDS011;34913;47.520;19.186;2023-05-13T12:38:14;5.05;;;4.05;;
49101;SDS011;34913;47.520;19.186;2023-05-13T12:40:44;5.65;;;4.25;;
49101;SDS011;34913;47.520;19.186;2023-05-13T12:43:10;7.25;;;4.45;;
49101;SDS011;34913;47.520;19.186;2023-05-13T12:45:37;5.95;;;4.25;;
49101;SDS011;34913;47.520;19.186;2023-05-13T12:48:04;7.45;;;3.92;;
49101;SDS011;34913;47.520;19.186;2023-05-13T12:50:29;6.57;;;4.10;;
49101;SDS011;34913;47.520;19.186;2023-05-13T12:52:55;8.02;;;4.13;;
49101;SDS011;34913;47.520;19.186;2023-05-13T12:55:24;8.82;;;4.47;;
49101;SDS011;34913;47.520;19.186;2023-05-13T12:57:58;5.82;;;4.43;;
49101;SDS011;34913;47.520;19.186;2023-05-13T13:00:25;6.32;;;4.00;;
49101;SDS011;34913;47.520;19.186;2023-05-13T13:02:51;6.93;;;4.03;;
49101;SDS011;34913;47.520;19.186;2023-05-13T13:05:18;5.65;;;3.88;;
49101;SDS011;34913;47.520;19.186;2023-05-13T13:07:45;4.72;;;3.85;;
49101;SDS011;34913;47.520;19.186;2023-05-13T13:10:10;5.60;;;4.03;;
49101;SDS011;34913;47.520;19.186;2023-05-13T13:12:36;6.13;;;4.07;;
49101;SDS011;34913;47.520;19.186;2023-05-13T13:15:02;9.05;;;4.20;;
49101;SDS011;34913;47.520;19.186;2023-05-13T13:17:28;4.82;;;3.97;;
49101;SDS011;34913;47.520;19.186;2023-05-13T13:19:53;8.77;;;4.03;;
49101;SDS011;34913;47.520;19.186;2023-05-13T13:22:19;6.22;;;4.03;;
49101;SDS011;34913;47.520;19.186;2023-05-13T13:24:44;7.43;;;4.10;;
49101;SDS011;34913;47.520;19.186;2023-05-13T13:27:10;5.07;;;4.03;;
49101;SDS011;34913;47.520;19.186;2023-05-13T13:29:35;6.60;;;3.88;;
49101;SDS011;34913;47.520;19.186;2023-05-13T13:32:01;5.95;;;4.10;;
49101;SDS011;34913;47.520;19.186;2023-05-13T13:34:27;6.00;;;4.00;;
49101;SDS011;34913;47.520;19.186;2023-05-13T13:36:52;5.00;;;3.72;;
49101;SDS011;34913;47.520;19.186;2023-05-13T13:39:18;8.07;;;4.18;;
49101;SDS011;34913;47.520;19.186;2023-05-13T13:41:43;6.43;;;3.50;;
49101;SDS011;34913;47.520;19.186;2023-05-13T13:44:08;7.82;;;3.85;;
49101;SDS011;34913;47.520;19.186;2023-05-13T13:46:34;5.47;;;3.50;;
49101;SDS011;34913;47.520;19.186;2023-05-13T13:48:59;6.88;;;3.78;;
49101;SDS011;34913;47.520;19.186;2023-05-13T13:51:25;4.80;;;3.80;;
49101;SDS011;34913;47.520;19.186;2023-05-13T13:53:50;4.18;;;3.45;;
49101;SDS011;34913;47.520;19.186;2023-05-13T13:56:15;6.32;;;3.83;;
49101;SDS011;34913;47.520;19.186;2023-05-13T13:58:41;6.47;;;4.13;;
49101;SDS011;34913;47.520;19.186;2023-05-13T14:01:06;3.92;;;3.63;;
49101;SDS011;34913;47.520;19.186;2023-05-13T14:03:32;5.57;;;3.75;;
49101;SDS011;34913;47.520;19.186;2023-05-13T14:05:57;6.78;;;3.80;;
49101;SDS011;34913;47.520;19.186;2023-05-13T14:08:22;4.72;;;3.83;;
49101;SDS011;34913;47.520;19.186;2023-05-13T14:10:48;4.90;;;3.90;;
49101;SDS011;34913;47.520;19.186;2023-05-13T14:13:14;4.93;;;3.72;;
49101;SDS011;34913;47.520;19.186;2023-05-13T14:15:39;4.57;;;3.92;;
49101;SDS011;34913;47.520;19.186;2023-05-13T14:18:05;4.93;;;3.63;;
49101;SDS011;34913;47.520;19.186;2023-05-13T14:20:33;5.25;;;3.50;;
49101;SDS011;34913;47.520;19.186;2023-05-13T14:22:59;5.65;;;3.50;;
49101;SDS011;34913;47.520;19.186;2023-05-13T14:25:25;4.65;;;3.63;;
49101;SDS011;34913;47.520;19.186;2023-05-13T14:27:51;7.07;;;4.05;;
49101;SDS011;34913;47.520;19.186;2023-05-13T14:30:17;5.55;;;3.92;;
49101;SDS011;34913;47.520;19.186;2023-05-13T14:32:42;4.93;;;3.75;;
49101;SDS011;34913;47.520;19.186;2023-05-13T14:35:09;4.55;;;3.83;;
49101;SDS011;34913;47.520;19.186;2023-05-13T14:37:38;3.60;;;3.20;;
49101;SDS011;34913;47.520;19.186;2023-05-13T14:40:04;4.38;;;3.30;;
49101;SDS011;34913;47.520;19.186;2023-05-13T14:42:30;5.43;;;3.78;;
49101;SDS011;34913;47.520;19.186;2023-05-13T14:44:56;3.92;;;3.20;;
49101;SDS011;34913;47.520;19.186;2023-05-13T14:47:21;5.38;;;3.90;;
49101;SDS011;34913;47.520;19.186;2023-05-13T14:49:47;5.93;;;4.15;;
49101;SDS011;34913;47.520;19.186;2023-05-13T14:52:12;6.45;;;3.60;;
49101;SDS011;34913;47.520;19.186;2023-05-13T14:54:38;9.95;;;4.18;;
49101;SDS011;34913;47.520;19.186;2023-05-13T14:57:04;5.60;;;4.03;;
49101;SDS011;34913;47.520;19.186;2023-05-13T14:59:31;7.30;;;4.25;;